MSC Turchia — A8IL9 — position and weather

sailwx.info

Track history (hours):
 
Tides and Currents Weather Stations Pressure Air Temp Water Temp Dewpoint Dewpoint Depression Visibility Wind Speed Wind Dir Waves Ship Positions

MSC Turchia

Last reported at 2014-Jul-12 21:24 UTC. Time now 2014-Jul-26 09:12 UTC.
Position N 31°18' E 032°22'.
Warning: this ship's position is 13 days out of date.

Length 276 m; beam 40 m; draft 14 m.

Type: Ship (hazmat cat D). MMSI: 636091212.

Date/timePositionNaut miles runAvg speedWind from/ knotsBaromVisibWave heightAir tempDewpointWater temp
2014-Jul-12 21:24N 31°18' E 032°22'8 9.3
2014-Jul-12 20:33N 31°26' E 032°23'3 2.3
2014-Jul-12 19:08N 31°27' E 032°19'0 0.0
2014-Jul-12 18:32N 31°27' E 032°19'0 0.0
2014-Jul-12 17:32N 31°27' E 032°19'2 2.2
2014-Jul-12 16:33N 31°28' E 032°17'1212.2
2014-Jul-12 15:33N 31°36' E 032°07'1514.6
2014-Jul-12 14:33N 31°46' E 031°54'1414.5
2014-Jul-12 13:33N 31°50' E 031°38'1616.1
2014-Jul-12 12:33N 31°55' E 031°20'1716.9
2014-Jul-12 11:33N 32°00' E 031°01'1716.8
2014-Jul-12 10:33N 32°05' E 030°42'1817.3
2014-Jul-12 09:31N 32°11' E 030°22'80316.8
2014-Jul-10 09:33N 36°18' E 014°57'1916.9
2014-Jul-10 08:27N 36°24' E 014°35'1616.9
2014-Jul-10 07:30N 36°29' E 014°16'1716.7
2014-Jul-10 06:29N 36°34' E 013°56'1916.7
2014-Jul-10 05:21N 36°40' E 013°33'1316.5
2014-Jul-10 04:33N 36°44' E 013°18'1616.2
2014-Jul-10 03:33N 36°48' E 012°58'17915.9
2014-Jul-09 16:14N 38°28' E 009°50'1217.0
2014-Jul-09 15:33N 38°37' E 009°40'1716.9
2014-Jul-09 14:32N 38°50' E 009°26'1716.9
2014-Jul-09 13:33N 39°03' E 009°12'1010.0
2014-Jul-09 12:33N 39°11' E 009°06'2 1.8
2014-Jul-09 11:33N 39°13' E 009°04'0 0.0
2014-Jul-09 10:33N 39°13' E 009°04'0 0.0
2014-Jul-09 09:33N 39°13' E 009°04'0 0.0
2014-Jul-09 08:33N 39°13' E 009°04'0 0.0
2014-Jul-09 07:33N 39°13' E 009°04'0 0.0
2014-Jul-09 06:33N 39°13' E 009°04'0 0.0
2014-Jul-09 05:33N 39°13' E 009°04'0 0.0
2014-Jul-09 04:33N 39°13' E 009°04'0 0.0
2014-Jul-09 03:33N 39°13' E 009°04'0 0.0
2014-Jul-09 02:33N 39°13' E 009°04'0 0.0
2014-Jul-09 01:33N 39°13' E 009°04'0 0.0
2014-Jul-09 00:33N 39°13' E 009°04'0 0.0
2014-Jul-08 23:33N 39°13' E 009°04'0 0.0
2014-Jul-08 22:33N 39°13' E 009°04'0 0.0
2014-Jul-08 21:33N 39°13' E 009°04'0 0.0
2014-Jul-08 20:33N 39°13' E 009°04'0 0.0
2014-Jul-08 19:33N 39°13' E 009°04'0 0.0
2014-Jul-08 18:33N 39°13' E 009°04'0 0.0
2014-Jul-08 17:33N 39°13' E 009°04'0 0.1
2014-Jul-08 16:33N 39°13' E 009°04'4 4.0
2014-Jul-08 15:33N 39°09' E 009°06'10 9.7
2014-Jul-08 14:33N 38°59' E 009°07'1515.4
2014-Jul-08 13:33N 38°47' E 008°54'1514.5
2014-Jul-08 12:33N 38°40' E 008°38'2214.8
2014-Jul-08 11:04N 38°34' E 008°11'25617.1
2014-Jul-07 20:07N 37°28' E 002°57'40818.1
2014-Jul-06 21:34N 35°58' W 005°19'155 5.7
2014-Jul-05 18:16N 36°23' W 008°29'1013.3
2014-Jul-05 17:34N 36°25' W 008°40'1613.2
2014-Jul-05 16:22N 36°29' W 008°59'3712.1
2014-Jul-05 13:18N 36°53' W 009°34'1013.3
2014-Jul-05 12:33N 37°03' W 009°37'1313.0
2014-Jul-05 11:33N 37°15' W 009°40'1313.0
2014-Jul-05 10:33N 37°28' W 009°45'1413.0
2014-Jul-05 09:30N 37°42' W 009°49'1812.9
2014-Jul-05 08:06N 37°59' W 009°54'713.1
2014-Jul-05 07:33N 38°06' W 009°56'1811.7
2014-Jul-05 06:00N 38°24' W 010°00'49813.2 340 / 121020.1 5.4 1.018.016.7
2014-Jul-03 16:07N 46°32' W 007°41'5715.0
2014-Jul-03 12:19N 47°22' W 007°01'  
Track history (hours):
 
Tides and Currents Weather Stations Pressure Air Temp Water Temp Dewpoint Dewpoint Depression Visibility Wind Speed Wind Dir Waves Ship Positions

MSC Turchia

Last reported at 2014-Jul-12 21:24 UTC. Time now 2014-Jul-26 09:12 UTC.
Position N 31°18' E 032°22'.
Warning: this ship's position is 13 days out of date.

Length 276 m; beam 40 m; draft 14 m.

Type: Ship (hazmat cat D). MMSI: 636091212.

Date/timePositionNaut miles runAvg speedWind from/ knotsBaromVisibWave heightAir tempDewpointWater temp
2014-Jul-12 21:24N 31°18' E 032°22'8 9.3
2014-Jul-12 20:33N 31°26' E 032°23'3 2.3
2014-Jul-12 19:08N 31°27' E 032°19'0 0.0
2014-Jul-12 18:32N 31°27' E 032°19'0 0.0
2014-Jul-12 17:32N 31°27' E 032°19'2 2.2
2014-Jul-12 16:33N 31°28' E 032°17'1212.2
2014-Jul-12 15:33N 31°36' E 032°07'1514.6
2014-Jul-12 14:33N 31°46' E 031°54'1414.5
2014-Jul-12 13:33N 31°50' E 031°38'1616.1
2014-Jul-12 12:33N 31°55' E 031°20'1716.9
2014-Jul-12 11:33N 32°00' E 031°01'1716.8
2014-Jul-12 10:33N 32°05' E 030°42'1817.3
2014-Jul-12 09:31N 32°11' E 030°22'80316.8
2014-Jul-10 09:33N 36°18' E 014°57'1916.9
2014-Jul-10 08:27N 36°24' E 014°35'1616.9
2014-Jul-10 07:30N 36°29' E 014°16'1716.7
2014-Jul-10 06:29N 36°34' E 013°56'1916.7
2014-Jul-10 05:21N 36°40' E 013°33'1316.5
2014-Jul-10 04:33N 36°44' E 013°18'1616.2
2014-Jul-10 03:33N 36°48' E 012°58'17915.9
2014-Jul-09 16:14N 38°28' E 009°50'1217.0
2014-Jul-09 15:33N 38°37' E 009°40'1716.9
2014-Jul-09 14:32N 38°50' E 009°26'1716.9
2014-Jul-09 13:33N 39°03' E 009°12'1010.0
2014-Jul-09 12:33N 39°11' E 009°06'2 1.8
2014-Jul-09 11:33N 39°13' E 009°04'0 0.0
2014-Jul-09 10:33N 39°13' E 009°04'0 0.0
2014-Jul-09 09:33N 39°13' E 009°04'0 0.0
2014-Jul-09 08:33N 39°13' E 009°04'0 0.0
2014-Jul-09 07:33N 39°13' E 009°04'0 0.0
2014-Jul-09 06:33N 39°13' E 009°04'0 0.0
2014-Jul-09 05:33N 39°13' E 009°04'0 0.0
2014-Jul-09 04:33N 39°13' E 009°04'0 0.0
2014-Jul-09 03:33N 39°13' E 009°04'0 0.0
2014-Jul-09 02:33N 39°13' E 009°04'0 0.0
2014-Jul-09 01:33N 39°13' E 009°04'0 0.0
2014-Jul-09 00:33N 39°13' E 009°04'0 0.0
2014-Jul-08 23:33N 39°13' E 009°04'0 0.0
2014-Jul-08 22:33N 39°13' E 009°04'0 0.0
2014-Jul-08 21:33N 39°13' E 009°04'0 0.0
2014-Jul-08 20:33N 39°13' E 009°04'0 0.0
2014-Jul-08 19:33N 39°13' E 009°04'0 0.0
2014-Jul-08 18:33N 39°13' E 009°04'0 0.0
2014-Jul-08 17:33N 39°13' E 009°04'0 0.1
2014-Jul-08 16:33N 39°13' E 009°04'4 4.0
2014-Jul-08 15:33N 39°09' E 009°06'10 9.7
2014-Jul-08 14:33N 38°59' E 009°07'1515.4
2014-Jul-08 13:33N 38°47' E 008°54'1514.5
2014-Jul-08 12:33N 38°40' E 008°38'2214.8
2014-Jul-08 11:04N 38°34' E 008°11'25617.1
2014-Jul-07 20:07N 37°28' E 002°57'40818.1
2014-Jul-06 21:34N 35°58' W 005°19'155 5.7
2014-Jul-05 18:16N 36°23' W 008°29'1013.3
2014-Jul-05 17:34N 36°25' W 008°40'1613.2
2014-Jul-05 16:22N 36°29' W 008°59'3712.1
2014-Jul-05 13:18N 36°53' W 009°34'1013.3
2014-Jul-05 12:33N 37°03' W 009°37'1313.0
2014-Jul-05 11:33N 37°15' W 009°40'1313.0
2014-Jul-05 10:33N 37°28' W 009°45'1413.0
2014-Jul-05 09:30N 37°42' W 009°49'1812.9
2014-Jul-05 08:06N 37°59' W 009°54'713.1
2014-Jul-05 07:33N 38°06' W 009°56'1811.7
2014-Jul-05 06:00N 38°24' W 010°00'49813.2 340 / 121020.1 5.4 1.018.016.7
2014-Jul-03 16:07N 46°32' W 007°41'5715.0
2014-Jul-03 12:19N 47°22' W 007°01'  

Dump ship's entire track history